createdAt,value
2022-12-25T00:00:41.153Z,6.74
2022-12-25T00:03:08.370Z,6.78
2022-12-25T00:05:38.169Z,6.81
2022-12-25T00:08:04.900Z,6.91
2022-12-25T00:10:31.617Z,6.94
2022-12-25T00:12:57.956Z,7.00
2022-12-25T00:15:24.316Z,7.03
2022-12-25T00:17:50.725Z,7.08
2022-12-25T00:20:17.152Z,7.11
2022-12-25T00:22:43.560Z,7.13
2022-12-25T00:25:10.404Z,7.15
2022-12-25T00:27:37.838Z,7.19
2022-12-25T00:30:07.726Z,7.21
2022-12-25T00:32:37.546Z,7.17
2022-12-25T00:35:05.545Z,7.21
2022-12-25T00:37:31.953Z,7.26
2022-12-25T00:39:58.309Z,7.30
2022-12-25T00:42:26.860Z,7.35
2022-12-25T00:44:53.334Z,7.33
2022-12-25T00:47:19.803Z,7.38
2022-12-25T00:49:46.363Z,7.36
2022-12-25T00:52:12.789Z,7.41
2022-12-25T00:54:39.320Z,7.46
2022-12-25T00:57:05.759Z,7.52
2022-12-25T00:59:34.087Z,7.53
2022-12-25T01:02:21.119Z,7.52
2022-12-25T01:04:47.774Z,7.53
2022-12-25T01:07:14.191Z,7.56
2022-12-25T01:09:59.349Z,7.56
2022-12-25T01:12:25.778Z,7.60
2022-12-25T01:14:52.237Z,7.56
2022-12-25T01:17:18.640Z,7.58
2022-12-25T01:19:44.985Z,7.62
2022-12-25T01:22:11.421Z,7.63
2022-12-25T01:24:37.768Z,7.61
2022-12-25T01:27:04.299Z,7.61
2022-12-25T01:29:30.801Z,7.66
2022-12-25T01:31:57.253Z,7.67
2022-12-25T01:34:23.739Z,7.66
2022-12-25T01:36:50.137Z,7.65
2022-12-25T01:39:16.548Z,7.61
2022-12-25T01:41:42.905Z,7.60
2022-12-25T01:44:34.876Z,7.61
2022-12-25T01:47:01.980Z,7.58
2022-12-25T01:49:28.976Z,7.56
2022-12-25T01:52:24.459Z,7.55
2022-12-25T01:54:58.177Z,7.52
2022-12-25T01:57:31.969Z,7.47
2022-12-25T02:00:00.744Z,7.50
2022-12-25T02:02:28.538Z,7.52
2022-12-25T02:05:03.056Z,7.52
2022-12-25T02:07:33.574Z,7.46
2022-12-25T02:09:59.983Z,7.40
2022-12-25T02:12:30.136Z,7.39
2022-12-25T02:15:04.859Z,7.35
2022-12-25T02:17:44.164Z,7.28
2022-12-25T02:20:32.418Z,7.22
2022-12-25T02:23:32.212Z,7.16
2022-12-25T02:26:18.080Z,7.12
2022-12-25T02:29:05.896Z,7.13
2022-12-25T02:31:42.269Z,7.12
2022-12-25T02:34:19.086Z,7.11
2022-12-25T02:36:50.381Z,7.06
2022-12-25T02:39:44.358Z,7.02
2022-12-25T02:42:21.175Z,7.05
2022-12-25T02:45:08.350Z,7.14
2022-12-25T02:47:55.310Z,7.11
2022-12-25T02:50:41.131Z,7.01
2022-12-25T02:53:28.299Z,7.05
2022-12-25T02:56:15.066Z,7.13
2022-12-25T02:59:02.325Z,7.16
2022-12-25T03:01:49.611Z,7.25
2022-12-25T03:04:40.352Z,7.32
2022-12-25T03:07:13.274Z,7.42
2022-12-25T03:10:24.390Z,7.46
2022-12-25T03:13:14.692Z,7.47
2022-12-25T03:15:59.704Z,7.44
2022-12-25T03:18:28.269Z,7.48
2022-12-25T03:21:13.921Z,7.51
2022-12-25T03:24:02.229Z,7.54
2022-12-25T03:26:48.087Z,7.62
2022-12-25T03:29:37.180Z,7.68
2022-12-25T03:32:37.679Z,7.77
2022-12-25T03:35:44.226Z,7.82
2022-12-25T03:38:41.312Z,7.83
2022-12-25T03:41:59.551Z,7.89
2022-12-25T03:44:56.377Z,7.89
2022-12-25T03:47:35.019Z,7.86
2022-12-25T03:50:35.153Z,7.90
2022-12-25T03:53:23.922Z,7.95
2022-12-25T03:56:09.758Z,7.93
2022-12-25T03:58:54.570Z,7.93
2022-12-25T04:01:39.453Z,7.95
2022-12-25T04:04:24.608Z,7.96
2022-12-25T04:07:09.516Z,7.90
2022-12-25T04:09:54.450Z,7.79
2022-12-25T04:12:39.221Z,7.75
2022-12-25T04:15:24.690Z,7.69
2022-12-25T04:18:13.017Z,7.65
2022-12-25T04:20:57.877Z,7.63
2022-12-25T04:26:37.746Z,7.53
2022-12-25T04:29:22.882Z,7.47
2022-12-25T04:32:07.858Z,7.45
2022-12-25T04:34:52.759Z,7.35
2022-12-25T04:37:19.198Z,7.33
2022-12-25T04:39:45.674Z,7.32
2022-12-25T04:42:12.100Z,7.27
2022-12-25T04:44:38.462Z,7.27
2022-12-25T04:47:10.897Z,7.24
2022-12-25T04:49:37.918Z,7.20
2022-12-25T04:52:04.413Z,7.19
2022-12-25T04:54:30.989Z,7.20
2022-12-25T04:56:57.480Z,7.26
2022-12-25T04:59:24.002Z,7.23
2022-12-25T05:01:50.431Z,7.17
2022-12-25T05:04:16.883Z,7.13
2022-12-25T05:06:43.225Z,7.09
2022-12-25T05:09:09.735Z,7.07
2022-12-25T05:11:36.130Z,7.06
2022-12-25T05:14:02.522Z,7.08
2022-12-25T05:16:28.981Z,7.05
2022-12-25T05:18:55.627Z,7.00
2022-12-25T05:21:22.284Z,7.00
2022-12-25T05:23:52.842Z,7.00
2022-12-25T05:26:22.454Z,7.00
2022-12-25T05:28:49.104Z,7.00
2022-12-25T05:31:16.110Z,6.99
2022-12-25T05:33:42.543Z,6.97
2022-12-25T05:36:10.739Z,7.00
2022-12-25T05:38:38.120Z,7.06
2022-12-25T05:41:05.251Z,7.06
2022-12-25T05:43:31.575Z,7.07
2022-12-25T05:45:58.111Z,7.07
2022-12-25T05:48:24.474Z,7.06
2022-12-25T05:50:50.822Z,7.09
2022-12-25T05:53:17.298Z,7.08
2022-12-25T05:55:43.802Z,7.08
2022-12-25T05:58:11.928Z,7.10
2022-12-25T06:00:38.868Z,7.09
2022-12-25T06:03:05.317Z,7.12
2022-12-25T06:05:32.259Z,7.20
2022-12-25T06:07:58.904Z,7.24
2022-12-25T06:10:25.387Z,7.28
2022-12-25T06:12:51.729Z,7.31
2022-12-25T06:15:18.135Z,7.34
2022-12-25T06:17:44.499Z,7.38
2022-12-25T06:20:11.052Z,7.40
2022-12-25T06:22:37.522Z,7.42
2022-12-25T06:25:04.156Z,7.43
2022-12-25T06:27:30.620Z,7.44
2022-12-25T06:29:56.982Z,7.45
2022-12-25T06:32:23.348Z,7.51
2022-12-25T06:34:49.683Z,7.58
2022-12-25T06:37:16.136Z,7.60
2022-12-25T06:39:42.513Z,7.66
2022-12-25T06:42:09.055Z,7.72
2022-12-25T06:44:35.458Z,7.75
2022-12-25T06:47:01.884Z,7.77
2022-12-25T06:49:28.387Z,7.81
2022-12-25T06:51:54.726Z,7.82
2022-12-25T06:54:21.164Z,7.85
2022-12-25T06:56:48.692Z,7.88
2022-12-25T06:59:15.153Z,7.88
2022-12-25T07:01:48.067Z,7.93
2022-12-25T07:04:23.557Z,7.96
2022-12-25T07:06:49.958Z,7.90
2022-12-25T07:09:16.461Z,7.93
2022-12-25T07:11:42.840Z,7.90
2022-12-25T07:14:23.238Z,7.93
2022-12-25T07:16:50.575Z,7.91
2022-12-25T07:19:17.191Z,7.91
2022-12-25T07:21:43.500Z,7.94
2022-12-25T07:24:10.761Z,7.95
2022-12-25T07:26:37.226Z,7.97
2022-12-25T07:29:03.574Z,7.97
2022-12-25T07:31:30.125Z,7.97
2022-12-25T07:33:56.528Z,7.97
2022-12-25T07:36:22.919Z,8.00
2022-12-25T07:38:49.964Z,8.02
2022-12-25T07:41:16.897Z,8.03
2022-12-25T07:43:43.527Z,8.05
2022-12-25T07:46:10.748Z,8.03
2022-12-25T07:48:37.352Z,8.00
2022-12-25T07:51:06.116Z,8.01
2022-12-25T07:53:33.085Z,7.98
2022-12-25T07:56:05.916Z,7.98
2022-12-25T07:58:33.177Z,7.98
2022-12-25T08:01:08.214Z,7.99
2022-12-25T08:03:35.421Z,7.97
2022-12-25T08:06:04.314Z,8.00
2022-12-25T08:08:31.124Z,8.01
2022-12-25T08:10:57.603Z,8.02
2022-12-25T08:13:23.986Z,8.03
2022-12-25T08:15:50.403Z,8.03
2022-12-25T08:18:16.803Z,8.03
2022-12-25T08:20:43.179Z,8.07
2022-12-25T08:23:09.562Z,8.08
2022-12-25T08:25:36.151Z,8.06
2022-12-25T08:28:02.612Z,8.07
2022-12-25T08:30:29.047Z,8.04
2022-12-25T08:32:55.811Z,8.06
2022-12-25T08:35:22.246Z,8.06
2022-12-25T08:37:48.846Z,8.05
2022-12-25T08:40:15.300Z,8.07
2022-12-25T08:42:41.713Z,8.06
2022-12-25T08:45:08.736Z,8.06
2022-12-25T08:47:35.104Z,8.06
2022-12-25T08:50:01.613Z,8.08
2022-12-25T08:52:28.928Z,8.08
2022-12-25T08:54:55.285Z,8.08
2022-12-25T08:57:21.606Z,8.09
2022-12-25T08:59:47.943Z,8.11
2022-12-25T09:02:19.323Z,8.12
2022-12-25T09:04:46.499Z,8.13
2022-12-25T09:07:13.011Z,8.13
2022-12-25T09:09:39.814Z,8.14
2022-12-25T09:12:06.335Z,8.16
2022-12-25T09:14:32.687Z,8.18
2022-12-25T09:16:59.048Z,8.19
2022-12-25T09:19:25.392Z,8.22
2022-12-25T09:21:51.802Z,8.25
2022-12-25T09:24:18.169Z,8.25
2022-12-25T09:26:44.560Z,8.28
2022-12-25T09:29:10.951Z,8.30
2022-12-25T09:31:37.428Z,8.29
2022-12-25T09:34:03.826Z,8.29
2022-12-25T09:36:30.286Z,8.31
2022-12-25T09:38:56.721Z,8.35
2022-12-25T09:41:28.956Z,8.35
2022-12-25T09:44:18.969Z,8.38
2022-12-25T09:46:53.805Z,8.38
2022-12-25T09:49:32.618Z,8.41
2022-12-25T09:52:05.024Z,8.42
2022-12-25T09:54:46.544Z,8.43
2022-12-25T09:57:14.486Z,8.42
2022-12-25T09:59:44.646Z,8.41
2022-12-25T10:02:33.520Z,8.38
2022-12-25T10:05:25.520Z,8.36
2022-12-25T10:08:23.258Z,8.35
2022-12-25T10:11:04.679Z,8.32
2022-12-25T10:13:56.523Z,8.31
2022-12-25T10:16:59.843Z,8.31
2022-12-25T10:19:47.533Z,8.28
2022-12-25T10:22:27.219Z,8.26
2022-12-25T10:24:57.964Z,8.26
2022-12-25T10:27:44.963Z,8.24
2022-12-25T10:30:20.832Z,8.24
2022-12-25T10:32:48.106Z,8.25
2022-12-25T10:35:17.886Z,8.23
2022-12-25T10:37:48.656Z,8.24
2022-12-25T10:40:26.414Z,8.25
2022-12-25T10:42:57.376Z,8.27
2022-12-25T10:45:23.760Z,8.26
2022-12-25T10:47:58.552Z,8.29
2022-12-25T10:50:28.539Z,8.30
2022-12-25T10:53:00.791Z,8.28
2022-12-25T10:55:29.495Z,8.27
2022-12-25T10:57:57.823Z,8.26
2022-12-25T11:00:29.846Z,8.25
2022-12-25T11:02:57.643Z,8.26
2022-12-25T11:05:28.453Z,8.27
2022-12-25T11:07:56.081Z,8.28
2022-12-25T11:10:30.911Z,8.30
2022-12-25T11:12:58.538Z,8.32
2022-12-25T11:15:33.845Z,8.31
2022-12-25T11:18:00.360Z,8.32
2022-12-25T11:20:27.173Z,8.32
2022-12-25T11:22:53.583Z,8.30
2022-12-25T11:25:25.563Z,8.31
2022-12-25T11:28:03.660Z,8.31
2022-12-25T11:30:32.988Z,8.32
2022-12-25T11:33:05.052Z,8.35
2022-12-25T11:35:37.164Z,8.37
2022-12-25T11:38:03.780Z,8.41
2022-12-25T11:40:44.268Z,8.43
2022-12-25T11:43:29.724Z,8.48
2022-12-25T11:46:38.463Z,8.54
2022-12-25T11:49:08.260Z,8.60
2022-12-25T11:51:39.190Z,8.61
2022-12-25T11:54:25.302Z,8.59
2022-12-25T11:56:52.226Z,8.57
2022-12-25T11:59:34.827Z,8.56
2022-12-25T12:02:20.425Z,8.58
2022-12-25T12:04:55.977Z,8.55
2022-12-25T12:07:29.086Z,8.52
2022-12-25T12:10:17.394Z,8.52
2022-12-25T12:13:04.599Z,8.52
2022-12-25T12:15:42.497Z,8.53
2022-12-25T12:18:27.194Z,8.54
2022-12-25T12:21:02.842Z,8.55
2022-12-25T12:23:32.669Z,8.56
2022-12-25T12:25:59.673Z,8.56
2022-12-25T12:28:36.849Z,8.54
2022-12-25T12:31:07.861Z,8.52
2022-12-25T12:33:42.756Z,8.48
2022-12-25T12:36:14.161Z,8.46
2022-12-25T12:38:43.511Z,8.43
2022-12-25T12:41:13.772Z,8.43
2022-12-25T12:43:48.218Z,8.43
2022-12-25T12:46:30.135Z,8.42
2022-12-25T12:49:29.584Z,8.41
2022-12-25T12:52:23.639Z,8.41
2022-12-25T12:55:02.663Z,8.42
2022-12-25T12:57:33.128Z,8.40
2022-12-25T13:00:08.459Z,8.39
2022-12-25T13:02:58.767Z,8.36
2022-12-25T13:05:38.025Z,8.35
2022-12-25T13:08:23.231Z,8.34
2022-12-25T13:11:03.073Z,8.33
2022-12-25T13:13:39.605Z,8.34
2022-12-25T13:16:06.862Z,8.33
2022-12-25T13:18:33.973Z,8.34
2022-12-25T13:21:04.814Z,8.35
2022-12-25T13:23:37.370Z,8.35
2022-12-25T13:26:05.388Z,8.37
2022-12-25T13:28:34.346Z,8.37
2022-12-25T13:31:25.490Z,8.38
2022-12-25T13:34:13.896Z,8.37
2022-12-25T13:36:40.418Z,8.37
2022-12-25T13:39:16.007Z,8.35
2022-12-25T13:42:04.873Z,8.35
2022-12-25T13:44:41.824Z,8.34
2022-12-25T13:47:16.554Z,8.36
2022-12-25T13:49:44.888Z,8.34
2022-12-25T13:52:14.392Z,8.35
2022-12-25T13:55:01.589Z,8.35
2022-12-25T13:57:38.692Z,8.36
2022-12-25T14:00:16.501Z,8.37
2022-12-25T14:02:43.019Z,8.36
2022-12-25T14:05:42.118Z,8.35
2022-12-25T14:08:15.635Z,8.37
2022-12-25T14:10:44.606Z,8.36
2022-12-25T14:13:14.444Z,8.38
2022-12-25T14:15:41.992Z,8.36
2022-12-25T14:18:15.841Z,8.37
2022-12-25T14:20:58.576Z,8.36
2022-12-25T14:23:26.150Z,8.36
2022-12-25T14:25:52.791Z,8.35
2022-12-25T14:28:24.575Z,8.36
2022-12-25T14:30:51.575Z,8.36
2022-12-25T14:33:22.861Z,8.36
2022-12-25T14:35:51.062Z,8.36
2022-12-25T14:38:29.135Z,8.34
2022-12-25T14:41:02.481Z,8.35
2022-12-25T14:43:30.389Z,8.35
2022-12-25T14:45:59.595Z,8.34
2022-12-25T14:48:29.135Z,8.34
2022-12-25T14:50:55.474Z,8.34
2022-12-25T14:53:24.609Z,8.34
2022-12-25T14:55:54.030Z,8.33
2022-12-25T14:58:23.746Z,8.33
2022-12-25T15:00:58.617Z,8.34
2022-12-25T15:03:45.360Z,8.33
2022-12-25T15:06:21.053Z,8.34
2022-12-25T15:09:06.493Z,8.33
2022-12-25T15:11:33.049Z,8.34
2022-12-25T15:13:59.474Z,8.34
2022-12-25T15:16:29.603Z,8.33
2022-12-25T15:18:56.641Z,8.34
2022-12-25T15:21:28.704Z,8.34
2022-12-25T15:23:57.205Z,8.33
2022-12-25T15:26:24.595Z,8.32
2022-12-25T15:28:51.207Z,8.33
2022-12-25T15:31:26.504Z,8.33
2022-12-25T15:33:58.852Z,8.34
2022-12-25T15:36:26.464Z,8.31
2022-12-25T15:38:52.926Z,8.32
2022-12-25T15:41:42.656Z,8.31
2022-12-25T15:44:11.875Z,8.30
2022-12-25T15:46:39.025Z,8.32
2022-12-25T15:49:05.668Z,8.29
2022-12-25T15:51:32.136Z,8.30
2022-12-25T15:53:59.568Z,8.30
2022-12-25T15:56:26.791Z,8.29
2022-12-25T15:58:53.342Z,8.29
2022-12-25T16:01:21.055Z,8.27
2022-12-25T16:03:48.760Z,8.25
2022-12-25T16:06:17.183Z,8.25
2022-12-25T16:08:44.342Z,8.23
2022-12-25T16:11:11.248Z,8.23
2022-12-25T16:13:37.689Z,8.21
2022-12-25T16:16:05.009Z,8.18
2022-12-25T16:18:31.461Z,8.16
2022-12-25T16:20:59.193Z,8.13
2022-12-25T16:23:25.812Z,8.14
2022-12-25T16:25:52.286Z,8.14
2022-12-25T16:28:18.598Z,8.17
2022-12-25T16:30:45.142Z,8.15
2022-12-25T16:33:11.728Z,8.13
2022-12-25T16:35:38.318Z,8.13
2022-12-25T16:38:04.772Z,8.16
2022-12-25T16:40:31.647Z,8.14
2022-12-25T16:42:58.116Z,8.15
2022-12-25T16:45:24.447Z,8.12
2022-12-25T16:47:50.799Z,8.12
2022-12-25T16:50:17.331Z,8.12
2022-12-25T16:52:43.735Z,8.12
2022-12-25T16:55:10.157Z,8.12
2022-12-25T16:57:36.656Z,8.11
2022-12-25T17:00:03.381Z,8.10
2022-12-25T17:02:30.051Z,8.09
2022-12-25T17:04:56.612Z,8.08
2022-12-25T17:07:23.027Z,8.10
2022-12-25T17:09:49.791Z,8.09
2022-12-25T17:12:16.722Z,8.11
2022-12-25T17:14:43.336Z,8.10
2022-12-25T17:17:10.052Z,8.10
2022-12-25T17:19:36.959Z,8.14
2022-12-25T17:22:03.533Z,8.13
2022-12-25T17:24:29.937Z,8.14
2022-12-25T17:26:56.498Z,8.12
2022-12-25T17:29:42.444Z,8.10
2022-12-25T17:32:09.982Z,8.09
2022-12-25T17:34:37.550Z,8.09
2022-12-25T17:37:04.746Z,8.09
2022-12-25T17:39:31.455Z,8.07
2022-12-25T17:41:57.851Z,8.08
2022-12-25T17:44:24.445Z,8.08
2022-12-25T17:46:51.132Z,8.07
2022-12-25T17:49:20.528Z,8.05
2022-12-25T17:51:47.306Z,8.06
2022-12-25T17:54:14.459Z,8.05
2022-12-25T17:56:40.803Z,8.04
2022-12-25T17:59:08.348Z,8.04
2022-12-25T18:01:37.504Z,8.02
2022-12-25T18:04:06.104Z,8.01
2022-12-25T18:06:35.714Z,8.00
2022-12-25T18:09:05.992Z,8.00
2022-12-25T18:11:33.180Z,8.00
2022-12-25T18:14:02.309Z,7.98
2022-12-25T18:16:32.608Z,7.97
2022-12-25T18:18:59.608Z,7.96
2022-12-25T18:21:26.819Z,7.95
2022-12-25T18:23:53.196Z,7.96
2022-12-25T18:26:20.561Z,7.94
2022-12-25T18:28:48.821Z,7.93
2022-12-25T18:31:21.520Z,7.94
2022-12-25T18:33:48.630Z,7.95
2022-12-25T18:36:17.859Z,7.95
2022-12-25T18:38:44.281Z,7.96
2022-12-25T18:41:11.051Z,7.96
2022-12-25T18:43:52.456Z,7.94
2022-12-25T18:46:22.170Z,7.94
2022-12-25T18:48:48.839Z,7.94
2022-12-25T18:51:15.241Z,7.93
2022-12-25T18:53:42.014Z,7.93
2022-12-25T18:56:12.820Z,7.92
2022-12-25T18:58:41.480Z,7.90
2022-12-25T19:01:14.814Z,7.91
2022-12-25T19:03:42.035Z,7.89
2022-12-25T19:06:08.905Z,7.90
2022-12-25T19:08:35.630Z,7.88
2022-12-25T19:11:08.083Z,7.89
2022-12-25T19:13:34.899Z,7.89
2022-12-25T19:16:01.357Z,7.88
2022-12-25T19:18:27.977Z,7.89
2022-12-25T19:20:54.352Z,7.90
2022-12-25T19:23:20.754Z,7.88
2022-12-25T19:25:47.678Z,7.90
2022-12-25T19:28:14.042Z,7.90
2022-12-25T19:30:40.464Z,7.87
2022-12-25T19:33:09.981Z,7.88
2022-12-25T19:35:40.699Z,7.89
2022-12-25T19:38:07.311Z,7.89
2022-12-25T19:40:38.264Z,7.91
2022-12-25T19:43:05.136Z,7.92
2022-12-25T19:45:31.682Z,7.90
2022-12-25T19:47:58.215Z,7.88
2022-12-25T19:50:30.691Z,7.89
2022-12-25T19:52:57.099Z,7.88
2022-12-25T19:55:23.512Z,7.90
2022-12-25T19:57:50.484Z,7.93
2022-12-25T20:00:17.337Z,7.95
2022-12-25T20:02:43.871Z,7.98
2022-12-25T20:05:10.354Z,7.98
2022-12-25T20:07:36.681Z,7.97
2022-12-25T20:10:03.094Z,7.99
2022-12-25T20:12:29.424Z,7.99
2022-12-25T20:14:56.115Z,8.01
2022-12-25T20:17:22.575Z,7.99
2022-12-25T20:19:48.920Z,8.00
2022-12-25T20:22:15.386Z,8.01
2022-12-25T20:24:41.716Z,8.02
2022-12-25T20:27:08.086Z,8.02
2022-12-25T20:29:34.515Z,8.00
2022-12-25T20:32:00.995Z,8.03
2022-12-25T20:34:27.405Z,8.04
2022-12-25T20:36:53.778Z,8.06
2022-12-25T20:39:20.126Z,8.06
2022-12-25T20:41:47.531Z,8.06
2022-12-25T20:44:14.011Z,8.05
2022-12-25T20:46:40.393Z,8.06
2022-12-25T20:49:06.829Z,8.05
2022-12-25T20:51:33.742Z,8.06
2022-12-25T20:54:00.858Z,8.06
2022-12-25T20:56:29.892Z,8.07
2022-12-25T20:58:59.052Z,8.07
2022-12-25T21:01:26.913Z,8.08
2022-12-25T21:03:54.028Z,8.09
2022-12-25T21:06:20.978Z,8.09
2022-12-25T21:08:47.535Z,8.08
2022-12-25T21:11:15.517Z,8.10
2022-12-25T21:13:43.295Z,8.12
2022-12-25T21:16:14.197Z,8.13
2022-12-25T21:18:40.670Z,8.14
2022-12-25T21:21:08.016Z,8.17
2022-12-25T21:23:36.522Z,8.17
2022-12-25T21:26:09.939Z,8.18
2022-12-25T21:28:36.351Z,8.17
2022-12-25T21:31:04.635Z,8.20
2022-12-25T21:33:49.504Z,8.18
2022-12-25T21:36:15.839Z,8.20
2022-12-25T21:38:42.189Z,8.22
2022-12-25T21:41:10.866Z,8.24
2022-12-25T21:43:38.815Z,8.26
2022-12-25T21:46:11.592Z,8.30
2022-12-25T21:48:39.510Z,8.31
2022-12-25T21:51:31.004Z,8.31
2022-12-25T21:54:00.793Z,8.33
2022-12-25T21:56:28.946Z,8.37
2022-12-25T21:58:55.362Z,8.34
2022-12-25T22:01:21.871Z,8.35
2022-12-25T22:03:48.340Z,8.38
2022-12-25T22:06:33.325Z,8.41
2022-12-25T22:08:59.698Z,8.38
2022-12-25T22:11:45.380Z,8.38
2022-12-25T22:14:51.446Z,8.38
2022-12-25T22:17:41.666Z,8.42
2022-12-25T22:20:10.907Z,8.41
2022-12-25T22:22:37.408Z,8.42
2022-12-25T22:25:05.779Z,8.43
2022-12-25T22:27:33.890Z,8.43
2022-12-25T22:30:00.859Z,8.43
2022-12-25T22:32:28.230Z,8.43
2022-12-25T22:34:54.645Z,8.41
2022-12-25T22:37:21.079Z,8.42
2022-12-25T22:39:47.537Z,8.45
2022-12-25T22:42:14.074Z,8.46
2022-12-25T22:44:40.848Z,8.44
2022-12-25T22:47:07.407Z,8.48
2022-12-25T22:49:33.967Z,8.46
2022-12-25T22:52:00.342Z,8.47
2022-12-25T22:54:30.960Z,8.47
2022-12-25T22:56:59.253Z,8.49
2022-12-25T22:59:26.005Z,8.48
2022-12-25T23:01:53.212Z,8.48
2022-12-25T23:04:19.932Z,8.49
2022-12-25T23:06:46.911Z,8.50
2022-12-25T23:09:20.593Z,8.51
2022-12-25T23:11:50.632Z,8.51
2022-12-25T23:14:35.661Z,8.50
2022-12-25T23:17:02.105Z,8.53
2022-12-25T23:19:46.849Z,8.55
2022-12-25T23:22:32.243Z,8.53
2022-12-25T23:25:18.230Z,8.53
2022-12-25T23:27:45.202Z,8.54
2022-12-25T23:30:13.757Z,8.54
2022-12-25T23:32:40.940Z,8.55
2022-12-25T23:35:07.699Z,8.55
2022-12-25T23:37:34.365Z,8.56
2022-12-25T23:40:00.743Z,8.57
2022-12-25T23:42:27.165Z,8.58
2022-12-25T23:44:53.557Z,8.58
2022-12-25T23:47:19.957Z,8.58
2022-12-25T23:49:46.376Z,8.57
2022-12-25T23:52:12.994Z,8.59
2022-12-25T23:54:39.533Z,8.61
2022-12-25T23:57:06.016Z,8.60
2022-12-25T23:59:32.581Z,8.60
